Time,TemperatureF,DewpointF,PressureIn,WindDirection,WindDirectionDegrees,WindSpeedMPH,WindSpeedGustMPH,Humidity,HourlyPrecipIn,Conditions,Clouds,dailyrainin,SolarRadiationWatts/m^2,SoftwareType,DateUTC
2013-09-18 00:14:00,62.0,52.0,30.58,East,82,5.0,12.0,71,0.00,,,0.00,0.000000,,2013-09-18 04:14:00,
2013-09-18 00:24:00,62.0,52.0,30.58,East,82,5.0,12.0,71,0.00,,,0.00,0.000000,,2013-09-18 04:24:00,
2013-09-18 00:34:00,62.0,52.0,30.58,East,82,5.0,12.0,71,0.00,,,0.00,0.000000,,2013-09-18 04:34:00,
2013-09-18 00:44:00,62.0,52.0,30.58,East,82,5.0,12.0,71,0.00,,,0.00,0.000000,,2013-09-18 04:44:00,
2013-09-18 01:13:00,61.0,52.0,30.58,East,92,6.0,17.0,71,0.00,,,-99.99,0.000000,,2013-09-18 05:13:00,
2013-09-18 01:23:00,61.0,52.0,30.58,East,92,6.0,17.0,71,0.00,,,-99.99,0.000000,,2013-09-18 05:23:00,
2013-09-18 01:33:00,61.0,52.0,30.58,East,92,6.0,17.0,71,0.00,,,-99.99,0.000000,,2013-09-18 05:33:00,
2013-09-18 01:43:00,61.0,52.0,30.58,East,92,6.0,17.0,71,0.00,,,-99.99,0.000000,,2013-09-18 05:43:00,
2013-09-18 02:12:00,61.0,53.0,30.58,East,91,5.0,13.0,76,0.00,,,0.00,0.000000,,2013-09-18 06:12:00,
2013-09-18 02:22:00,61.0,53.0,30.58,East,91,5.0,13.0,76,0.00,,,0.00,0.000000,,2013-09-18 06:22:00,
2013-09-18 02:33:00,61.0,53.0,30.58,East,91,5.0,13.0,76,0.00,,,0.00,0.000000,,2013-09-18 06:33:00,
2013-09-18 02:42:00,61.0,53.0,30.58,East,91,5.0,13.0,76,0.00,,,0.00,0.000000,,2013-09-18 06:42:00,
2013-09-18 03:12:00,59.0,52.0,30.58,ENE,77,4.0,16.0,78,0.00,,,0.00,0.000000,,2013-09-18 07:12:00,
2013-09-18 03:22:00,59.0,52.0,30.58,ENE,77,4.0,16.0,78,0.00,,,0.00,0.000000,,2013-09-18 07:22:00,
2013-09-18 03:32:00,59.0,52.0,30.58,ENE,77,4.0,16.0,78,0.00,,,0.00,0.000000,,2013-09-18 07:32:00,
2013-09-18 03:42:00,59.0,52.0,30.58,ENE,77,4.0,16.0,78,0.00,,,0.00,0.000000,,2013-09-18 07:42:00,
2013-09-18 04:12:00,58.0,52.0,30.57,ENE,71,3.0,15.0,80,0.00,,,0.00,0.000000,,2013-09-18 08:12:00,
2013-09-18 04:23:00,58.0,52.0,30.57,ENE,71,3.0,15.0,80,0.00,,,0.00,0.000000,,2013-09-18 08:23:00,
2013-09-18 04:32:00,58.0,52.0,30.57,ENE,71,3.0,15.0,80,0.00,,,0.00,0.000000,,2013-09-18 08:32:00,
2013-09-18 04:42:00,58.0,52.0,30.57,ENE,71,3.0,15.0,80,0.00,,,0.00,0.000000,,2013-09-18 08:42:00,
2013-09-18 05:12:00,56.0,52.0,30.57,East,79,3.0,9.0,87,0.00,,,0.00,0.000000,,2013-09-18 09:12:00,
2013-09-18 05:22:00,56.0,52.0,30.57,East,79,3.0,9.0,87,0.00,,,0.00,0.000000,,2013-09-18 09:22:00,
2013-09-18 05:33:00,56.0,52.0,30.57,East,79,3.0,9.0,87,0.00,,,0.00,0.000000,,2013-09-18 09:33:00,
2013-09-18 05:43:00,56.0,52.0,30.57,East,79,3.0,9.0,87,0.00,,,0.00,0.000000,,2013-09-18 09:43:00,
2013-09-18 06:13:00,55.0,52.0,30.57,ENE,57,4.0,11.0,91,0.00,,,0.00,0.000000,,2013-09-18 10:13:00,
2013-09-18 06:23:00,55.0,52.0,30.57,ENE,57,4.0,11.0,91,0.00,,,0.00,0.000000,,2013-09-18 10:23:00,
2013-09-18 06:33:00,55.0,52.0,30.57,ENE,57,4.0,11.0,91,0.00,,,0.00,0.000000,,2013-09-18 10:33:00,
2013-09-18 06:43:00,55.0,52.0,30.57,ENE,57,4.0,11.0,91,0.00,,,0.00,0.000000,,2013-09-18 10:43:00,
2013-09-18 07:12:00,54.0,52.0,30.59,NE,49,4.0,10.0,93,0.00,,,0.00,0.000000,,2013-09-18 11:12:00,
2013-09-18 07:22:00,54.0,52.0,30.59,NE,49,4.0,10.0,93,0.00,,,0.00,0.000000,,2013-09-18 11:22:00,
2013-09-18 07:33:00,54.0,52.0,30.59,NE,49,4.0,10.0,93,0.00,,,0.00,0.000000,,2013-09-18 11:33:00,
2013-09-18 07:42:00,54.0,52.0,30.59,NE,49,4.0,10.0,93,0.00,,,0.00,0.000000,,2013-09-18 11:42:00,
2013-09-18 08:12:00,54.0,51.0,30.61,NE,50,5.0,11.0,91,0.00,,,0.00,12.000000,,2013-09-18 12:12:00,
2013-09-18 08:22:00,54.0,51.0,30.61,NE,50,5.0,11.0,91,0.00,,,0.00,12.000000,,2013-09-18 12:22:00,
2013-09-18 08:32:00,54.0,51.0,30.61,NE,50,5.0,11.0,91,0.00,,,0.00,12.000000,,2013-09-18 12:32:00,
2013-09-18 08:43:00,54.0,51.0,30.61,NE,50,5.0,11.0,91,0.00,,,0.00,12.000000,,2013-09-18 12:43:00,